createdAt,value
2018-02-27T00:01:10.879Z,6.70
2018-02-27T00:03:38.311Z,6.50
2018-02-27T00:06:06.852Z,6.15
2018-02-27T00:08:34.332Z,5.90
2018-02-27T00:11:01.782Z,6.85
2018-02-27T00:13:29.220Z,7.07
2018-02-27T00:15:56.796Z,5.55
2018-02-27T00:18:24.234Z,6.15
2018-02-27T00:20:54.693Z,6.25
2018-02-27T00:23:22.440Z,6.37
2018-02-27T00:25:49.876Z,6.20
2018-02-27T00:28:17.405Z,6.10
2018-02-27T00:30:45.628Z,4.47
2018-02-27T00:33:13.064Z,4.47
2018-02-27T00:35:40.528Z,5.20
2018-02-27T00:38:07.981Z,4.40
2018-02-27T00:40:35.412Z,4.35
2018-02-27T00:43:03.709Z,4.70
2018-02-27T00:45:31.132Z,4.80
2018-02-27T00:47:59.395Z,4.28
2018-02-27T00:50:26.880Z,4.80
2018-02-27T00:52:55.097Z,4.95
2018-02-27T00:55:22.661Z,4.60
2018-02-27T00:57:50.104Z,4.90
2018-02-27T01:00:17.580Z,4.75
2018-02-27T01:02:45.046Z,5.43
2018-02-27T01:05:12.525Z,5.45
2018-02-27T01:07:39.951Z,5.35
2018-02-27T01:10:07.379Z,5.45
2018-02-27T01:12:35.076Z,5.10
2018-02-27T01:15:02.510Z,5.85
2018-02-27T01:17:29.940Z,6.53
2018-02-27T01:19:57.400Z,6.70
2018-02-27T01:22:24.830Z,6.25
2018-02-27T01:24:52.280Z,6.25
2018-02-27T01:27:19.933Z,6.22
2018-02-27T01:29:47.401Z,6.50
2018-02-27T01:32:14.900Z,6.97
2018-02-27T01:34:42.340Z,6.55
2018-02-27T01:37:10.544Z,7.57
2018-02-27T01:39:38.044Z,6.80
2018-02-27T01:42:05.483Z,6.60
2018-02-27T01:44:32.917Z,7.50
2018-02-27T01:47:00.412Z,7.25
2018-02-27T01:49:27.852Z,7.55
2018-02-27T01:54:47.053Z,7.40
2018-02-27T01:57:14.515Z,8.30
2018-02-27T01:59:41.948Z,8.15
2018-02-27T02:02:09.471Z,7.72
2018-02-27T02:04:36.904Z,7.78
2018-02-27T02:07:06.483Z,7.75
2018-02-27T02:09:33.920Z,8.05
2018-02-27T02:12:01.357Z,7.70
2018-02-27T02:14:29.017Z,8.75
2018-02-27T02:16:56.462Z,7.60
2018-02-27T02:19:24.701Z,7.12
2018-02-27T02:21:52.136Z,7.97
2018-02-27T02:24:19.574Z,6.93
2018-02-27T02:26:47.173Z,8.18
2018-02-27T02:29:14.616Z,8.27
2018-02-27T02:31:45.857Z,8.07
2018-02-27T02:34:13.302Z,8.52
2018-02-27T02:36:40.741Z,8.00
2018-02-27T02:39:08.200Z,8.10
2018-02-27T02:41:35.692Z,7.57
2018-02-27T02:44:03.120Z,7.57
2018-02-27T02:46:30.557Z,8.45
2018-02-27T02:49:00.121Z,7.60
2018-02-27T02:51:27.556Z,7.90
2018-02-27T02:53:55.132Z,7.70
2018-02-27T02:56:23.338Z,7.35
2018-02-27T02:58:51.544Z,7.47
2018-02-27T03:01:19.032Z,6.87
2018-02-27T03:03:46.476Z,7.93
2018-02-27T03:06:13.922Z,7.82
2018-02-27T03:08:41.716Z,7.70
2018-02-27T03:11:09.161Z,8.05
2018-02-27T03:13:36.630Z,8.05
2018-02-27T03:16:04.069Z,8.02
2018-02-27T03:18:31.557Z,7.37
2018-02-27T03:20:59.001Z,7.65
2018-02-27T03:23:27.197Z,7.68
2018-02-27T03:25:55.076Z,7.60
2018-02-27T03:28:22.517Z,7.95
2018-02-27T03:30:50.039Z,8.35
2018-02-27T03:33:17.504Z,7.85
2018-02-27T03:35:44.954Z,8.30
2018-02-27T03:38:12.433Z,8.00
2018-02-27T03:40:39.877Z,8.68
2018-02-27T03:43:07.319Z,8.60
2018-02-27T03:45:34.838Z,8.55
2018-02-27T03:48:02.277Z,8.50
2018-02-27T03:50:29.813Z,8.35
2018-02-27T03:52:58.010Z,8.90
2018-02-27T03:55:25.472Z,9.18
2018-02-27T03:57:52.945Z,9.10
2018-02-27T04:00:20.380Z,8.43
2018-02-27T04:02:47.840Z,9.27
2018-02-27T04:05:15.377Z,9.43
2018-02-27T04:07:42.814Z,8.73
2018-02-27T04:10:13.340Z,9.15
2018-02-27T04:12:40.789Z,9.30
2018-02-27T04:15:08.233Z,8.90
2018-02-27T04:17:36.464Z,9.23
2018-02-27T04:20:04.233Z,8.93
2018-02-27T04:22:31.697Z,8.80
2018-02-27T04:24:59.155Z,9.25
2018-02-27T04:27:26.744Z,8.90
2018-02-27T04:29:54.956Z,9.80
2018-02-27T04:32:22.434Z,9.40
2018-02-27T04:34:49.993Z,9.13
2018-02-27T04:37:17.437Z,8.52
2018-02-27T04:39:44.893Z,9.45
2018-02-27T04:42:14.268Z,10.20
2018-02-27T04:44:41.697Z,9.40
2018-02-27T04:47:09.163Z,9.60
2018-02-27T04:49:37.374Z,9.20
2018-02-27T04:52:06.185Z,10.77
2018-02-27T04:54:33.637Z,10.85
2018-02-27T04:57:01.108Z,10.93
2018-02-27T04:59:32.380Z,10.50
2018-02-27T05:01:59.864Z,10.50
2018-02-27T05:04:27.300Z,10.57
2018-02-27T05:06:54.744Z,11.57
2018-02-27T05:09:22.490Z,10.25
2018-02-27T05:11:49.934Z,10.40
2018-02-27T05:14:17.381Z,12.05
2018-02-27T05:16:44.853Z,11.18
2018-02-27T05:19:12.317Z,12.02
2018-02-27T05:21:39.768Z,11.98
2018-02-27T05:24:07.209Z,12.48
2018-02-27T05:26:34.814Z,11.35
2018-02-27T05:29:02.256Z,11.65
2018-02-27T05:31:29.718Z,12.02
2018-02-27T05:33:57.300Z,12.52
2018-02-27T05:36:25.514Z,12.13
2018-02-27T05:38:52.956Z,11.80
2018-02-27T05:41:20.673Z,12.27
2018-02-27T05:43:48.143Z,12.15
2018-02-27T05:46:16.537Z,11.50
2018-02-27T05:48:44.741Z,12.82
2018-02-27T05:51:12.235Z,12.90
2018-02-27T05:53:39.677Z,12.10
2018-02-27T05:56:07.127Z,12.82
2018-02-27T05:58:34.808Z,12.95
2018-02-27T06:01:02.413Z,13.18
2018-02-27T06:03:35.564Z,12.57
2018-02-27T06:06:15.803Z,12.05
2018-02-27T06:08:43.268Z,11.60
2018-02-27T06:11:10.713Z,12.15
2018-02-27T06:13:38.149Z,11.82
2018-02-27T06:16:09.766Z,12.43
2018-02-27T06:18:37.258Z,11.60
2018-02-27T06:21:04.710Z,11.60
2018-02-27T06:23:32.918Z,12.18
2018-02-27T06:26:00.386Z,11.60
2018-02-27T06:28:27.873Z,11.77
2018-02-27T06:30:55.321Z,11.73
2018-02-27T06:33:22.781Z,12.57
2018-02-27T06:35:50.363Z,12.60
2018-02-27T06:38:18.694Z,12.52
2018-02-27T06:40:46.159Z,12.63
2018-02-27T06:43:13.590Z,11.88
2018-02-27T06:45:41.056Z,13.18
2018-02-27T06:48:08.521Z,13.20
2018-02-27T06:50:35.968Z,12.68
2018-02-27T06:53:03.632Z,12.95
2018-02-27T06:55:31.089Z,12.73
2018-02-27T06:57:58.533Z,11.50
2018-02-27T07:00:26.077Z,17.60
2018-02-27T07:02:53.741Z,13.48
2018-02-27T07:05:21.957Z,12.32
2018-02-27T07:07:51.261Z,12.40
2018-02-27T07:10:18.720Z,11.00
2018-02-27T07:12:46.142Z,10.90
2018-02-27T07:15:13.625Z,12.37
2018-02-27T07:17:43.559Z,11.60
2018-02-27T07:20:11.047Z,11.02
2018-02-27T07:22:38.510Z,10.68
2018-02-27T07:25:08.017Z,10.38
2018-02-27T07:27:36.333Z,11.25
2018-02-27T07:30:03.920Z,11.25
2018-02-27T07:32:31.389Z,10.55
2018-02-27T07:34:58.869Z,12.65
2018-02-27T07:37:27.117Z,10.70
2018-02-27T07:39:54.581Z,14.23
2018-02-27T07:42:22.030Z,12.55
2018-02-27T07:44:49.532Z,11.05
2018-02-27T07:47:17.011Z,12.30
2018-02-27T07:49:45.223Z,11.27
2018-02-27T07:52:12.676Z,10.93
2018-02-27T07:54:40.141Z,11.40
2018-02-27T07:57:07.588Z,10.70
2018-02-27T07:59:36.612Z,9.50
2018-02-27T08:02:04.064Z,11.55
2018-02-27T08:04:31.504Z,10.32
2018-02-27T08:06:58.978Z,10.35
2018-02-27T08:09:26.420Z,10.40
2018-02-27T08:11:54.451Z,9.90
2018-02-27T08:14:21.912Z,10.10
2018-02-27T08:16:50.813Z,8.85
2018-02-27T08:19:18.284Z,10.10
2018-02-27T08:21:45.752Z,11.60
2018-02-27T08:24:13.201Z,10.93
2018-02-27T08:26:41.034Z,9.70
2018-02-27T08:29:08.484Z,9.50
2018-02-27T08:31:36.071Z,9.07
2018-02-27T08:34:03.516Z,9.13
2018-02-27T08:36:31.014Z,8.05
2018-02-27T08:38:58.481Z,7.68
2018-02-27T08:41:26.064Z,7.37
2018-02-27T08:43:53.512Z,7.62
2018-02-27T08:46:21.789Z,8.77
2018-02-27T08:48:50.573Z,8.32
2018-02-27T08:51:18.061Z,7.10
2018-02-27T08:53:45.507Z,7.35
2018-02-27T08:56:13.056Z,7.30
2018-02-27T08:58:40.445Z,4.45
2018-02-27T09:01:07.890Z,6.60
2018-02-27T09:03:35.438Z,6.32
2018-02-27T09:06:02.906Z,6.47
2018-02-27T09:08:30.345Z,6.40
2018-02-27T09:10:58.567Z,5.72
2018-02-27T09:13:26.030Z,6.10
2018-02-27T09:15:53.489Z,6.40
2018-02-27T09:18:20.935Z,7.95
2018-02-27T09:20:48.443Z,8.80
2018-02-27T09:23:16.645Z,6.65
2018-02-27T09:25:44.159Z,6.37
2018-02-27T09:28:14.196Z,5.68
2018-02-27T09:30:42.447Z,6.30
2018-02-27T09:33:09.909Z,6.25
2018-02-27T09:35:37.344Z,5.45
2018-02-27T09:38:04.937Z,6.00
2018-02-27T09:40:32.419Z,6.70
2018-02-27T09:42:59.862Z,6.62
2018-02-27T09:45:28.175Z,6.30
2018-02-27T09:47:55.651Z,7.47
2018-02-27T09:50:23.081Z,6.10
2018-02-27T09:52:50.571Z,6.90
2018-02-27T09:55:18.006Z,6.10
2018-02-27T09:57:45.662Z,5.80
2018-02-27T10:00:13.121Z,5.87
2018-02-27T10:02:40.545Z,5.35
2018-02-27T10:05:08.799Z,4.65
2018-02-27T10:07:36.237Z,4.65
2018-02-27T10:10:03.680Z,4.55
2018-02-27T10:12:32.448Z,4.97
2018-02-27T10:14:59.902Z,5.47
2018-02-27T10:17:27.339Z,3.92
2018-02-27T10:19:55.571Z,3.37
2018-02-27T10:22:23.038Z,4.12
2018-02-27T10:24:50.483Z,3.30
2018-02-27T10:27:17.955Z,4.20
2018-02-27T10:29:45.976Z,4.22
2018-02-27T10:32:14.791Z,3.78
2018-02-27T10:34:42.234Z,4.45
2018-02-27T10:37:09.691Z,4.28
2018-02-27T10:39:37.149Z,4.57
2018-02-27T10:42:04.614Z,4.07
2018-02-27T10:44:32.049Z,5.90
2018-02-27T10:46:59.596Z,5.50
2018-02-27T10:49:27.792Z,3.87
2018-02-27T10:51:55.262Z,4.62
2018-02-27T10:54:22.722Z,4.03
2018-02-27T10:56:50.384Z,3.55
2018-02-27T10:59:17.825Z,4.12
2018-02-27T11:01:45.272Z,3.47
2018-02-27T11:04:12.753Z,3.62
2018-02-27T11:06:40.222Z,3.95
2018-02-27T11:09:07.685Z,3.90
2018-02-27T11:11:36.053Z,3.12
2018-02-27T11:14:03.555Z,4.78
2018-02-27T11:16:31.014Z,4.22
2018-02-27T11:18:58.457Z,3.25
2018-02-27T11:21:25.944Z,3.90
2018-02-27T11:23:54.237Z,4.05
2018-02-27T11:26:21.689Z,3.90
2018-02-27T11:28:52.922Z,3.72
2018-02-27T11:31:21.157Z,3.30
2018-02-27T11:33:48.629Z,3.90
2018-02-27T11:36:16.088Z,4.62
2018-02-27T11:38:43.548Z,2.90
2018-02-27T11:41:11.005Z,3.20
2018-02-27T11:43:38.462Z,3.42
2018-02-27T11:46:06.009Z,5.55
2018-02-27T11:48:33.480Z,3.80
2018-02-27T11:51:00.953Z,3.28
2018-02-27T11:53:29.156Z,3.80
2018-02-27T11:55:56.634Z,4.15
2018-02-27T11:58:24.053Z,3.28
2018-02-27T12:00:52.508Z,3.47
2018-02-27T12:03:20.034Z,3.47
2018-02-27T12:05:47.512Z,3.00
2018-02-27T12:08:15.017Z,2.60
2018-02-27T12:10:42.415Z,2.83
2018-02-27T12:13:10.018Z,4.47
2018-02-27T12:15:38.230Z,3.00
2018-02-27T12:18:05.754Z,2.90
2018-02-27T12:20:33.201Z,3.30
2018-02-27T12:23:01.948Z,3.20
2018-02-27T12:25:29.384Z,3.28
2018-02-27T12:27:56.832Z,2.92
2018-02-27T12:30:24.503Z,2.90
2018-02-27T12:32:51.998Z,2.85
2018-02-27T12:35:20.210Z,3.22
2018-02-27T12:37:47.657Z,3.30
2018-02-27T12:40:15.175Z,2.60
2018-02-27T12:42:42.624Z,2.83
2018-02-27T12:45:10.060Z,2.55
2018-02-27T12:47:37.665Z,2.50
2018-02-27T12:50:05.114Z,2.60
2018-02-27T12:52:32.589Z,2.80
2018-02-27T12:55:00.050Z,2.50
2018-02-27T12:57:27.533Z,2.85
2018-02-27T12:59:55.749Z,2.30
2018-02-27T13:02:23.228Z,2.87
2018-02-27T13:04:54.513Z,2.75
2018-02-27T13:07:23.038Z,2.90
2018-02-27T13:09:50.492Z,2.22
2018-02-27T13:12:17.948Z,2.83
2018-02-27T13:14:45.418Z,2.78
2018-02-27T13:17:12.981Z,2.67
2018-02-27T13:19:40.447Z,3.25
2018-02-27T13:22:07.912Z,2.90
2018-02-27T13:24:35.556Z,2.40
2018-02-27T13:27:03.032Z,2.65
2018-02-27T13:29:30.481Z,2.95
2018-02-27T13:31:58.000Z,2.58
2018-02-27T13:34:25.502Z,2.47
2018-02-27T13:36:52.947Z,11.52
2018-02-27T13:39:20.421Z,3.40
2018-02-27T13:41:47.869Z,5.15
2018-02-27T13:44:15.426Z,3.20
2018-02-27T13:46:42.888Z,2.80
2018-02-27T13:49:10.376Z,3.08
2018-02-27T13:51:38.047Z,3.30
2018-02-27T13:54:07.530Z,2.33
2018-02-27T13:56:34.988Z,2.53
2018-02-27T13:59:02.438Z,5.07
2018-02-27T14:01:29.873Z,3.20
2018-02-27T14:03:57.341Z,3.75
2018-02-27T14:06:24.885Z,3.40
2018-02-27T14:08:57.364Z,5.28
2018-02-27T14:11:24.812Z,3.00
2018-02-27T14:13:52.293Z,2.50
2018-02-27T14:16:19.728Z,2.05
2018-02-27T14:18:47.200Z,3.50
2018-02-27T14:21:14.674Z,2.70
2018-02-27T14:23:44.076Z,2.92
2018-02-27T14:26:11.510Z,2.90
2018-02-27T14:28:38.960Z,2.50
2018-02-27T14:31:06.455Z,2.35
2018-02-27T14:33:33.904Z,2.28
2018-02-27T14:36:01.375Z,2.20
2018-02-27T14:38:28.887Z,2.80
2018-02-27T14:40:56.353Z,2.62
2018-02-27T14:43:23.806Z,3.20
2018-02-27T14:45:51.340Z,3.22
2018-02-27T14:48:18.790Z,4.15
2018-02-27T14:50:47.059Z,3.60
2018-02-27T14:53:14.516Z,3.30
2018-02-27T14:55:42.866Z,3.72
2018-02-27T14:58:10.344Z,3.40
2018-02-27T15:00:37.781Z,4.62
2018-02-27T15:03:05.249Z,3.65
2018-02-27T15:05:32.684Z,3.40
2018-02-27T15:08:00.149Z,3.47
2018-02-27T15:10:27.589Z,3.58
2018-02-27T15:12:55.254Z,3.28
2018-02-27T15:15:22.701Z,3.80
2018-02-27T15:17:50.185Z,3.70
2018-02-27T15:20:17.621Z,3.58
2018-02-27T15:22:45.098Z,6.10
2018-02-27T15:25:12.578Z,3.87
2018-02-27T15:27:40.071Z,3.85
2018-02-27T15:30:08.263Z,3.58
2018-02-27T15:32:35.736Z,3.40
2018-02-27T15:35:03.730Z,3.30
2018-02-27T15:37:31.185Z,3.00
2018-02-27T15:39:58.647Z,3.17
2018-02-27T15:42:27.326Z,3.45
2018-02-27T15:44:54.752Z,3.42
2018-02-27T15:47:22.296Z,3.25
2018-02-27T15:49:49.775Z,3.40
2018-02-27T15:52:17.200Z,3.47
2018-02-27T15:54:44.668Z,3.80
2018-02-27T15:57:12.179Z,3.10
2018-02-27T15:59:39.629Z,4.12
2018-02-27T16:02:07.437Z,3.37
2018-02-27T16:04:35.640Z,2.90
2018-02-27T16:07:03.085Z,3.30
2018-02-27T16:09:30.546Z,4.07
2018-02-27T16:11:58.780Z,4.43
2018-02-27T16:14:26.220Z,4.35
2018-02-27T16:16:53.817Z,3.20
2018-02-27T16:19:22.025Z,3.25
2018-02-27T16:21:49.511Z,3.28
2018-02-27T16:24:16.959Z,3.20
2018-02-27T16:26:44.448Z,3.17
2018-02-27T16:29:12.689Z,3.37
2018-02-27T16:31:40.157Z,3.42
2018-02-27T16:34:07.744Z,3.70
2018-02-27T16:36:35.208Z,3.78
2018-02-27T16:39:03.432Z,4.20
2018-02-27T16:41:30.892Z,3.90
2018-02-27T16:43:58.341Z,4.82
2018-02-27T16:46:25.825Z,3.90
2018-02-27T16:48:53.257Z,4.75
2018-02-27T16:51:25.036Z,4.00
2018-02-27T16:53:52.498Z,3.42
2018-02-27T16:56:20.002Z,3.30
2018-02-27T16:58:48.217Z,3.40
2018-02-27T17:01:15.686Z,4.22
2018-02-27T17:03:43.436Z,3.60
2018-02-27T17:06:10.985Z,4.18
2018-02-27T17:08:38.446Z,4.47
2018-02-27T17:11:06.665Z,4.30
2018-02-27T17:13:34.129Z,5.20
2018-02-27T17:16:01.574Z,4.45
2018-02-27T17:18:29.080Z,4.40
2018-02-27T17:20:56.518Z,4.75
2018-02-27T17:23:23.953Z,6.22
2018-02-27T17:25:51.558Z,4.40
2018-02-27T17:28:18.983Z,3.92
2018-02-27T17:30:47.229Z,4.70
2018-02-27T17:33:14.672Z,4.47
2018-02-27T17:35:42.159Z,4.43
2018-02-27T17:38:09.595Z,4.20
2018-02-27T17:40:37.031Z,4.70
2018-02-27T17:43:07.169Z,4.55
2018-02-27T17:45:34.625Z,5.30
2018-02-27T17:48:02.088Z,4.80
2018-02-27T17:50:29.545Z,4.55
2018-02-27T17:52:57.009Z,3.97
2018-02-27T17:55:24.469Z,4.50
2018-02-27T17:57:51.915Z,4.50
2018-02-27T18:00:23.673Z,5.70
2018-02-27T18:02:51.117Z,5.00
2018-02-27T18:05:18.589Z,4.75
2018-02-27T18:07:46.049Z,4.28
2018-02-27T18:10:13.513Z,4.62
2018-02-27T18:12:40.957Z,4.68
2018-02-27T18:15:08.493Z,5.07
2018-02-27T18:17:35.937Z,4.57
2018-02-27T18:20:03.425Z,4.62
2018-02-27T18:22:30.859Z,4.30
2018-02-27T18:24:58.292Z,4.60
2018-02-27T18:27:31.653Z,5.12
2018-02-27T18:29:59.164Z,4.12
2018-02-27T18:32:26.606Z,4.40
2018-02-27T18:34:55.112Z,5.03
2018-02-27T18:37:22.568Z,3.70
2018-02-27T18:39:50.763Z,3.95
2018-02-27T18:42:18.436Z,4.30
2018-02-27T18:44:45.897Z,3.72
2018-02-27T18:47:13.358Z,4.15
2018-02-27T18:49:40.792Z,4.72
2018-02-27T18:52:08.257Z,4.28
2018-02-27T18:54:35.688Z,4.55
2018-02-27T18:57:03.156Z,4.62
2018-02-27T18:59:30.597Z,3.95
2018-02-27T19:01:58.216Z,4.32
2018-02-27T19:04:25.665Z,4.75
2018-02-27T19:06:53.098Z,5.47
2018-02-27T19:09:20.595Z,4.80
2018-02-27T19:11:48.048Z,4.43
2018-02-27T19:14:15.485Z,5.75
2018-02-27T19:16:43.032Z,4.70
2018-02-27T19:19:10.501Z,4.80
2018-02-27T19:21:37.941Z,4.82
2018-02-27T19:24:05.596Z,5.28
2018-02-27T19:26:33.036Z,5.20
2018-02-27T19:29:00.473Z,4.90
2018-02-27T19:31:28.777Z,4.85
2018-02-27T19:33:56.245Z,5.18
2018-02-27T19:36:23.852Z,5.15
2018-02-27T19:38:52.072Z,4.85
2018-02-27T19:41:19.630Z,5.05
2018-02-27T19:43:47.126Z,5.25
2018-02-27T19:46:14.572Z,5.35
2018-02-27T19:48:42.018Z,5.32
2018-02-27T19:51:09.625Z,5.60
2018-02-27T19:53:38.304Z,5.75
2018-02-27T19:56:05.802Z,5.22
2018-02-27T19:58:33.272Z,5.55
2018-02-27T20:01:01.461Z,5.82
2018-02-27T20:03:29.099Z,6.37
2018-02-27T20:05:56.721Z,5.72
2018-02-27T20:08:24.166Z,6.85
2018-02-27T20:10:51.653Z,12.43
2018-02-27T20:13:19.884Z,7.03
2018-02-27T20:15:47.470Z,6.60
2018-02-27T20:18:16.116Z,7.07
2018-02-27T20:20:44.027Z,7.03
2018-02-27T20:23:17.293Z,6.30
2018-02-27T20:25:44.861Z,6.12
2018-02-27T20:28:17.994Z,6.70
2018-02-27T20:30:46.215Z,6.35
2018-02-27T20:33:13.800Z,7.28
2018-02-27T20:35:41.267Z,6.53
2018-02-27T20:38:08.737Z,6.65
2018-02-27T20:40:37.000Z,8.90
2018-02-27T20:43:04.440Z,10.35
2018-02-27T20:45:31.902Z,9.18
2018-02-27T20:47:59.485Z,7.68
2018-02-27T20:50:27.744Z,9.15
2018-02-27T20:52:55.124Z,9.90
2018-02-27T20:55:23.403Z,8.80
2018-02-27T20:57:51.636Z,7.72
2018-02-27T21:00:19.135Z,7.35
2018-02-27T21:02:47.349Z,7.80
2018-02-27T21:05:14.788Z,7.40
2018-02-27T21:07:42.432Z,8.05
2018-02-27T21:10:09.940Z,7.40
2018-02-27T21:12:37.381Z,7.53
2018-02-27T21:15:04.835Z,7.03
2018-02-27T21:17:32.348Z,7.00
2018-02-27T21:20:00.645Z,7.65
2018-02-27T21:22:28.863Z,7.50
2018-02-27T21:24:58.426Z,7.28
2018-02-27T21:27:26.644Z,7.30
2018-02-27T21:29:54.128Z,7.62
2018-02-27T21:32:21.567Z,8.40
2018-02-27T21:34:49.008Z,10.27
2018-02-27T21:37:16.546Z,7.70
2018-02-27T21:39:44.996Z,8.98
2018-02-27T21:42:12.488Z,9.00
2018-02-27T21:44:39.932Z,9.88
2018-02-27T21:47:08.149Z,13.88
2018-02-27T21:49:35.626Z,12.05
2018-02-27T21:52:03.579Z,10.90
2018-02-27T21:54:31.151Z,9.70
2018-02-27T21:56:58.667Z,9.10
2018-02-27T21:59:26.172Z,8.50
2018-02-27T22:01:53.622Z,8.55
2018-02-27T22:04:21.125Z,9.00
2018-02-27T22:06:49.345Z,8.77
2018-02-27T22:09:17.007Z,10.13
2018-02-27T22:11:44.547Z,9.48
2018-02-27T22:14:12.009Z,9.98
2018-02-27T22:16:44.437Z,10.20
2018-02-27T22:19:11.905Z,9.75
2018-02-27T22:21:40.133Z,9.48
2018-02-27T22:24:09.019Z,9.45
2018-02-27T22:26:36.463Z,8.43
2018-02-27T22:29:03.911Z,8.45
2018-02-27T22:31:31.377Z,8.50
2018-02-27T22:33:58.825Z,10.38
2018-02-27T22:36:26.293Z,8.73
2018-02-27T22:38:53.743Z,9.85
2018-02-27T22:41:21.333Z,8.57
2018-02-27T22:43:48.918Z,9.38
2018-02-27T22:46:16.355Z,9.25
2018-02-27T22:48:43.801Z,8.27
2018-02-27T22:51:11.316Z,10.63
2018-02-27T22:53:41.980Z,8.25
2018-02-27T22:56:09.436Z,7.85
2018-02-27T22:58:36.868Z,12.98
2018-02-27T23:01:05.138Z,10.60
2018-02-27T23:03:34.449Z,9.07
2018-02-27T23:06:01.894Z,7.90
2018-02-27T23:08:30.225Z,7.90
2018-02-27T23:10:57.670Z,10.38
2018-02-27T23:13:25.133Z,8.32
2018-02-27T23:15:53.749Z,12.23
2018-02-27T23:18:21.189Z,7.85
2018-02-27T23:20:54.757Z,8.55
2018-02-27T23:23:23.009Z,7.43
2018-02-27T23:25:51.866Z,7.65
2018-02-27T23:28:24.747Z,7.12
2018-02-27T23:30:52.242Z,7.32
2018-02-27T23:33:20.657Z,6.47
2018-02-27T23:35:48.088Z,6.65
2018-02-27T23:38:15.568Z,7.68
2018-02-27T23:40:43.001Z,6.43
2018-02-27T23:43:10.471Z,7.07
2018-02-27T23:45:37.976Z,7.00
2018-02-27T23:48:05.416Z,6.60
2018-02-27T23:50:32.982Z,6.65
2018-02-27T23:53:00.415Z,6.85
2018-02-27T23:55:27.851Z,6.95
2018-02-27T23:57:55.326Z,6.70
